Time;durP1;ratioP1;P1;durP2;ratioP2;P2;SDS_P1;SDS_P2;PMS_P1;PMS_P2;Temp;Humidity;BMP_temperature;BMP_pressure;BME280_temperature;BME280_humidity;BME280_pressure;Samples;Min_cycle;Max_cycle;Signal;HPM_P1;HPM_P2
2023/04/11 00:01:53;;;;;;;32.05;5.78;;;;;;;8.10;100.00;100804.47;10376406;28;20374;-75
2023/04/11 00:06:55;;;;;;;29.10;6.85;;;;;;;8.13;100.00;100804.09;10393903;28;20105;-74
2023/04/11 00:11:56;;;;;;;23.23;4.82;;;;;;;8.15;100.00;100802.06;10376177;28;20037;-74
2023/04/11 00:16:59;;;;;;;17.50;4.72;;;;;;;8.21;100.00;100807.75;10392924;28;20109;-74
2023/04/11 00:22:00;;;;;;;31.75;7.43;;;;;;;8.30;100.00;100812.88;10377405;28;20355;-74
2023/04/11 00:27:01;;;;;;;17.20;5.45;;;;;;;8.42;100.00;100807.88;10374857;28;20112;-71
2023/04/11 00:32:02;;;;;;;24.95;5.65;;;;;;;8.51;100.00;100811.31;10378748;28;20455;-72
2023/04/11 00:37:02;;;;;;;21.40;7.30;;;;;;;8.52;100.00;100810.28;10395518;28;20029;-72
2023/04/11 00:42:06;;;;;;;23.15;5.43;;;;;;;8.55;100.00;100818.88;10377273;28;20160;-71
2023/04/11 00:47:07;;;;;;;21.65;6.68;;;;;;;8.66;100.00;100820.25;10377079;28;20180;-72
2023/04/11 00:52:08;;;;;;;24.52;6.22;;;;;;;8.72;100.00;100821.38;10377618;28;20411;-72
2023/04/11 00:57:08;;;;;;;15.27;5.32;;;;;;;8.73;100.00;100831.97;10376703;28;20108;-72
2023/04/11 01:02:09;;;;;;;18.50;4.47;;;;;;;8.69;100.00;100819.06;10375930;28;20037;-72
2023/04/11 01:07:09;;;;;;;15.43;4.38;;;;;;;8.68;100.00;100823.63;10375558;28;20030;-72
2023/04/11 01:12:10;;;;;;;9.65;3.53;;;;;;;8.67;100.00;100818.38;10375012;28;20045;-72
2023/04/11 01:17:12;;;;;;;7.60;2.63;;;;;;;8.66;100.00;100832.91;10374945;28;20065;-72
2023/04/11 01:22:13;;;;;;;14.38;4.82;;;;;;;8.61;100.00;100842.44;10374203;28;20051;-72
2023/04/11 01:27:14;;;;;;;17.08;3.72;;;;;;;8.40;100.00;100836.91;10373903;28;20489;-72
2023/04/11 01:32:14;;;;;;;14.70;3.17;;;;;;;8.33;100.00;100830.56;10373187;28;20055;-72
2023/04/11 01:37:15;;;;;;;4.35;2.20;;;;;;;8.35;100.00;100836.59;10373938;28;20538;-72
2023/04/11 01:42:15;;;;;;;7.28;3.20;;;;;;;8.33;100.00;100838.66;10390064;28;20136;-73
2023/04/11 01:47:16;;;;;;;11.82;4.45;;;;;;;8.34;100.00;100843.00;10389171;28;20084;-72
2023/04/11 01:52:16;;;;;;;8.23;3.05;;;;;;;8.33;100.00;100855.66;10372624;28;20076;-73
2023/04/11 01:57:17;;;;;;;4.00;2.92;;;;;;;8.40;100.00;100852.28;10374770;28;20068;-72
2023/04/11 02:02:17;;;;;;;8.93;4.00;;;;;;;8.36;100.00;100878.75;10389838;28;20038;-72
2023/04/11 02:07:19;;;;;;;11.05;2.97;;;;;;;8.41;100.00;100881.75;10389303;28;20038;-72
2023/04/11 02:12:20;;;;;;;15.60;3.20;;;;;;;8.38;100.00;100880.25;10373301;28;20033;-72
2023/04/11 02:17:21;;;;;;;13.93;3.25;;;;;;;8.36;100.00;100887.69;10373178;28;20087;-72
2023/04/11 02:22:21;;;;;;;14.23;3.78;;;;;;;8.25;100.00;100889.97;10372434;28;20370;-72
2023/04/11 02:27:22;;;;;;;20.25;4.40;;;;;;;8.19;100.00;100893.41;10373730;28;20041;-73
2023/04/11 02:32:22;;;;;;;15.63;4.20;;;;;;;8.02;100.00;100898.94;10373500;28;20038;-72
2023/04/11 02:37:24;;;;;;;15.75;3.35;;;;;;;7.79;100.00;100901.66;10372269;28;20070;-72
2023/04/11 02:42:25;;;;;;;8.55;4.22;;;;;;;7.59;100.00;100901.25;10374498;28;20081;-72
2023/04/11 02:47:25;;;;;;;12.23;4.05;;;;;;;7.54;100.00;100906.34;10373432;28;20466;-72
2023/04/11 02:52:26;;;;;;;11.70;3.83;;;;;;;7.52;100.00;100908.38;10363502;28;20167;-72
2023/04/11 02:57:26;;;;;;;23.73;4.28;;;;;;;7.45;100.00;100907.41;10380955;28;20038;-72
2023/04/11 03:02:28;;;;;;;10.77;3.65;;;;;;;7.44;100.00;100911.97;10381629;28;20450;-73
2023/04/11 03:07:32;;;;;;;14.70;4.63;;;;;;;7.54;100.00;100913.59;10380247;28;20099;-72
2023/04/11 03:12:32;;;;;;;11.73;4.15;;;;;;;7.60;100.00;100913.72;10380084;28;20041;-72
2023/04/11 03:17:32;;;;;;;14.27;3.63;;;;;;;7.55;100.00;100924.19;10379907;28;20073;-72
2023/04/11 03:22:33;;;;;;;3.47;2.33;;;;;;;7.47;100.00;100935.03;10378647;28;20386;-72
2023/04/11 03:27:33;;;;;;;6.57;3.83;;;;;;;7.38;100.00;100946.84;10379852;28;20452;-72
2023/04/11 03:32:34;;;;;;;5.05;1.75;;;;;;;7.30;100.00;100947.72;10378162;28;20116;-72
2023/04/11 03:37:35;;;;;;;9.50;2.38;;;;;;;7.25;100.00;100946.59;10377988;28;20446;-72
2023/04/11 03:42:35;;;;;;;12.18;2.30;;;;;;;7.19;100.00;100950.81;10377158;28;20049;-72
2023/04/11 03:47:37;;;;;;;10.45;2.97;;;;;;;7.09;100.00;100956.41;10379239;28;20496;-72
2023/04/11 03:52:37;;;;;;;4.65;3.03;;;;;;;7.04;100.00;100969.53;10378280;28;20053;-72
2023/04/11 03:57:37;;;;;;;21.15;3.47;;;;;;;7.01;100.00;100985.19;10376969;28;20458;-72
2023/04/11 04:02:38;;;;;;;15.20;3.58;;;;;;;6.94;100.00;100987.72;10378043;28;20121;-72
2023/04/11 04:07:38;;;;;;;7.22;3.17;;;;;;;6.92;100.00;101003.19;10377891;28;20172;-72
2023/04/11 04:12:39;;;;;;;11.93;2.30;;;;;;;6.90;100.00;100999.84;10377132;28;20461;-72
2023/04/11 04:17:40;;;;;;;10.63;2.85;;;;;;;6.89;100.00;100998.16;10378768;28;20113;-72
2023/04/11 04:22:41;;;;;;;15.57;3.50;;;;;;;6.87;100.00;101001.03;10376202;28;20129;-72
2023/04/11 04:27:43;;;;;;;18.75;3.58;;;;;;;6.90;100.00;100994.47;10377235;28;20117;-72
2023/04/11 04:32:44;;;;;;;9.93;3.10;;;;;;;6.84;100.00;101005.94;10391885;28;20119;-73
2023/04/11 04:37:44;;;;;;;10.15;3.80;;;;;;;6.87;100.00;101011.81;10376699;28;20367;-72
2023/04/11 04:42:48;;;;;;;8.90;3.20;;;;;;;6.88;100.00;101024.25;10375039;28;20104;-72
2023/04/11 04:47:49;;;;;;;10.93;2.95;;;;;;;7.15;100.00;101019.50;10375251;28;20037;-72
2023/04/11 04:52:49;;;;;;;14.25;2.90;;;;;;;7.36;100.00;101024.31;10376156;28;20033;-72
2023/04/11 04:57:50;;;;;;;7.70;2.92;;;;;;;7.48;100.00;101028.31;10378167;28;20160;-72
2023/04/11 05:02:53;;;;;;;14.63;3.90;;;;;;;7.63;100.00;101044.59;10375177;28;20121;-72
2023/04/11 05:07:53;;;;;;;19.23;4.53;;;;;;;7.78;100.00;101036.59;10376245;28;20141;-72
2023/04/11 05:12:54;;;;;;;14.10;3.45;;;;;;;7.86;100.00;101045.50;10375168;28;20099;-71
2023/04/11 05:17:56;;;;;;;11.77;4.28;;;;;;;7.86;100.00;101045.50;10375760;28;20416;-72
2023/04/11 05:22:56;;;;;;;13.20;4.47;;;;;;;7.81;100.00;101060.50;10375790;28;20033;-72
2023/04/11 05:27:57;;;;;;;17.40;4.22;;;;;;;7.78;100.00;101066.25;10374631;28;20092;-72
2023/04/11 05:32:57;;;;;;;12.73;5.07;;;;;;;7.80;100.00;101075.00;10374867;28;20116;-72
2023/04/11 05:37:57;;;;;;;14.68;4.13;;;;;;;7.93;100.00;101078.81;10373310;28;20124;-72
2023/04/11 05:42:58;;;;;;;18.15;4.05;;;;;;;7.98;100.00;101074.78;10375650;28;20046;-72
2023/04/11 05:47:58;;;;;;;17.48;4.15;;;;;;;7.93;100.00;101086.06;10372802;28;20103;-72
2023/04/11 05:52:59;;;;;;;4.50;2.83;;;;;;;8.14;100.00;101097.09;10372297;28;20053;-72
2023/04/11 05:57:59;;;;;;;14.77;3.70;;;;;;;8.91;100.00;101090.03;10373157;28;20061;-72
2023/04/11 06:03:00;;;;;;;16.98;3.53;;;;;;;9.49;100.00;101099.25;10389086;28;20024;-72
2023/04/11 06:08:01;;;;;;;5.05;2.55;;;;;;;9.85;100.00;101102.03;10357664;28;20034;-72
2023/04/11 06:13:02;;;;;;;14.40;2.72;;;;;;;10.51;100.00;101106.63;10375026;28;20037;-72
2023/04/11 06:18:02;;;;;;;9.55;3.13;;;;;;;10.73;100.00;101116.41;10372716;28;20096;-72
2023/04/11 06:23:03;;;;;;;16.10;3.08;;;;;;;10.56;100.00;101112.28;10374211;28;20033;-72
2023/04/11 06:28:03;;;;;;;6.85;2.63;;;;;;;10.10;100.00;101113.38;10380892;28;20026;-72
2023/04/11 06:33:04;;;;;;;13.23;3.35;;;;;;;9.66;100.00;101118.81;10380092;28;20450;-72
2023/04/11 06:38:04;;;;;;;16.17;3.83;;;;;;;10.82;100.00;101126.09;10364894;28;20025;-72
2023/04/11 06:43:05;;;;;;;8.23;5.03;;;;;;;11.51;100.00;101135.41;10380607;28;20532;-72
2023/04/11 06:48:05;;;;;;;13.55;3.33;;;;;;;12.13;100.00;101141.88;10380811;28;20045;-72
2023/04/11 06:53:06;;;;;;;5.97;3.70;;;;;;;12.63;100.00;101140.56;10380137;28;20057;-72
2023/04/11 06:58:06;;;;;;;7.57;2.20;;;;;;;12.94;100.00;101156.31;10395089;28;20068;-72
2023/04/11 07:03:07;;;;;;;9.82;3.20;;;;;;;13.31;100.00;101158.69;10395272;28;20045;-72
2023/04/11 07:08:07;;;;;;;15.27;2.65;;;;;;;13.49;100.00;101172.47;10381664;28;20539;-72
2023/04/11 07:13:08;;;;;;;16.08;3.20;;;;;;;13.78;100.00;101164.91;10378705;28;20026;-72
2023/04/11 07:18:08;;;;;;;6.72;3.13;;;;;;;14.02;100.00;101177.03;10395791;28;20045;-72
2023/04/11 07:23:08;;;;;;;14.80;2.75;;;;;;;13.97;100.00;101180.38;10380442;28;20073;-72
2023/04/11 07:28:10;;;;;;;4.65;3.25;;;;;;;13.29;100.00;101185.25;10377818;28;20458;-72
2023/04/11 07:33:10;;;;;;;11.13;3.25;;;;;;;13.81;100.00;101197.16;10393943;28;20362;-72
2023/04/11 07:38:11;;;;;;;10.60;2.72;;;;;;;12.79;100.00;101204.56;10378902;28;20030;-72
2023/04/11 07:43:11;;;;;;;3.85;2.67;;;;;;;11.39;100.00;101206.47;10380300;28;20493;-73
2023/04/11 07:48:12;;;;;;;10.38;2.85;;;;;;;12.69;100.00;101206.84;10362666;28;20026;-72
2023/04/11 07:53:12;;;;;;;6.57;2.95;;;;;;;12.77;100.00;101217.56;10378659;28;20553;-72
2023/04/11 07:58:13;;;;;;;11.52;3.33;;;;;;;14.03;100.00;101219.53;10394075;28;20042;-72
2023/04/11 08:03:15;;;;;;;8.75;2.17;;;;;;;12.00;100.00;101234.94;10394053;28;20519;-72
2023/04/11 08:08:15;;;;;;;6.40;3.28;;;;;;;13.02;100.00;101239.56;10394805;28;20124;-72
2023/04/11 08:13:16;;;;;;;8.10;2.63;;;;;;;13.04;100.00;101242.91;10377515;28;20524;-72
2023/04/11 08:18:20;;;;;;;5.45;2.03;;;;;;;13.00;100.00;101252.53;10393489;28;20484;-72
2023/04/11 08:23:20;;;;;;;16.90;2.95;;;;;;;12.46;100.00;101269.66;10392414;28;20030;-72
2023/04/11 08:28:21;;;;;;;9.95;3.00;;;;;;;13.37;100.00;101266.63;10376156;28;20481;-72
2023/04/11 08:33:22;;;;;;;15.15;3.35;;;;;;;13.98;100.00;101271.91;10377021;28;20049;-72
2023/04/11 08:38:22;;;;;;;4.07;2.00;;;;;;;14.60;100.00;101273.25;10378380;28;20030;-72
2023/04/11 08:43:23;;;;;;;6.00;2.13;;;;;;;15.27;100.00;101267.47;10378035;28;20460;-72
2023/04/11 08:48:24;;;;;;;10.43;3.35;;;;;;;15.26;100.00;101258.47;10375649;28;20480;-72
2023/04/11 08:53:24;;;;;;;4.60;3.47;;;;;;;16.31;100.00;101266.00;10376782;28;20064;-72
2023/04/11 08:58:25;;;;;;;8.57;2.10;;;;;;;16.67;100.00;101261.59;10390921;28;20041;-72
2023/04/11 09:03:25;;;;;;;7.30;3.30;;;;;;;16.77;100.00;101272.03;10376007;28;20037;-72
2023/04/11 09:08:27;;;;;;;7.38;3.00;;;;;;;16.85;100.00;101279.94;10375207;28;20064;-72
2023/04/11 09:13:28;;;;;;;5.43;3.05;;;;;;;16.44;100.00;101276.78;10391208;28;20029;-72
2023/04/11 09:18:36;;;;;;;3.90;2.33;;;;;;;16.88;100.00;101277.56;10390278;28;20033;-72
2023/04/11 09:23:36;;;;;;;7.88;2.75;;;;;;;17.48;100.00;101265.75;10373836;28;20476;-72
2023/04/11 09:28:52;;;;;;;5.40;2.15;;;;;;;16.92;100.00;101286.97;10374270;28;20022;-72
2023/04/11 09:33:57;;;;;;;4.50;2.28;;;;;;;16.99;100.00;101284.16;10390080;28;20030;-72
2023/04/11 09:38:58;;;;;;;6.38;2.42;;;;;;;16.69;100.00;101278.63;10373952;28;20041;-72
2023/04/11 09:43:59;;;;;;;3.92;2.00;;;;;;;16.57;100.00;101292.22;10389898;28;20079;-72
2023/04/11 09:49:02;;;;;;;5.82;2.53;;;;;;;15.78;100.00;101285.63;10373769;28;20480;-72
2023/04/11 09:54:03;;;;;;;6.28;2.03;;;;;;;14.06;100.00;101290.75;10373777;28;20026;-72
2023/04/11 09:59:03;;;;;;;7.70;2.55;;;;;;;15.53;95.07;101291.84;10372271;28;20442;-72
2023/04/11 10:04:04;;;;;;;4.03;2.53;;;;;;;15.51;94.15;101294.00;10374646;28;20353;-72
2023/04/11 10:09:08;;;;;;;4.85;2.55;;;;;;;16.00;93.03;101281.44;10374312;28;20034;-72
2023/04/11 10:14:27;;;;;;;4.63;2.42;;;;;;;15.27;88.36;101294.75;10372721;28;20461;-72
2023/04/11 10:19:28;;;;;;;5.30;2.78;;;;;;;16.14;84.45;101295.78;10387820;28;20488;-72
2023/04/11 10:24:28;;;;;;;3.80;2.63;;;;;;;16.58;87.59;101282.09;10373048;28;20032;-72
2023/04/11 10:29:29;;;;;;;2.78;1.77;;;;;;;15.75;93.30;101297.81;10373454;28;20071;-72
2023/04/11 10:34:30;;;;;;;6.95;2.63;;;;;;;14.18;83.70;101301.84;10373004;28;20066;-72
2023/04/11 10:39:49;;;;;;;4.10;1.88;;;;;;;15.54;87.80;101296.28;10373825;28;20084;-73
2023/04/11 10:45:23;;;;;;;6.00;2.13;;;;;;;16.60;68.46;101296.41;10372613;28;20030;-73
2023/04/11 10:50:26;;;;;;;5.13;3.08;;;;;;;17.28;60.57;101300.81;10373523;28;20053;-72
2023/04/11 10:55:28;;;;;;;11.77;3.58;;;;;;;17.32;59.17;101286.41;10373058;28;20065;-72
2023/04/11 11:00:28;;;;;;;6.75;2.78;;;;;;;18.04;75.90;101288.28;10372821;28;20018;-73
2023/04/11 11:05:29;;;;;;;3.05;2.20;;;;;;;18.26;70.15;101296.75;10371488;28;20021;-72
2023/04/11 11:10:45;;;;;;;4.97;2.45;;;;;;;18.62;73.56;101281.91;10376607;28;20472;-73
2023/04/11 11:15:46;;;;;;;13.65;2.97;;;;;;;19.04;64.53;101295.41;10379233;28;20026;-73
2023/04/11 11:20:47;;;;;;;10.60;3.42;;;;;;;18.62;52.17;101289.28;10380803;28;20033;-73
2023/04/11 11:25:52;;;;;;;2.60;2.10;;;;;;;17.73;52.02;101306.66;10379033;28;20022;-73
2023/04/11 11:30:54;;;;;;;10.43;3.63;;;;;;;18.50;58.17;101317.56;10380524;28;20041;-73
2023/04/11 11:35:59;;;;;;;4.88;2.78;;;;;;;18.44;50.10;101320.44;10361645;28;20033;-73
2023/04/11 11:41:01;;;;;;;16.95;2.42;;;;;;;18.42;60.42;101333.56;10362312;28;20398;-72
2023/04/11 11:46:13;;;;;;;5.60;2.65;;;;;;;18.92;56.25;101327.53;10361582;28;20022;-72
2023/04/11 11:51:14;;;;;;;6.13;3.42;;;;;;;18.62;56.34;101338.66;10378961;28;20408;-73
2023/04/11 11:56:15;;;;;;;7.30;3.35;;;;;;;18.72;60.04;101339.75;10378917;28;20117;-72
2023/04/11 12:01:16;;;;;;;10.02;3.45;;;;;;;19.34;50.15;101338.28;10377743;28;20063;-72
2023/04/11 12:06:16;;;;;;;6.97;2.05;;;;;;;19.35;47.49;101326.22;10376440;28;20120;-74
2023/04/11 12:11:17;;;;;;;16.88;3.35;;;;;;;18.99;46.43;101337.31;10393551;28;20025;-73
2023/04/11 12:16:20;;;;;;;4.20;2.83;;;;;;;18.54;45.83;101337.97;10377372;28;20057;-73
2023/04/11 12:21:20;;;;;;;9.98;2.97;;;;;;;18.48;45.05;101343.59;10375336;28;20033;-73
2023/04/11 12:26:22;;;;;;;7.78;3.45;;;;;;;18.51;44.87;101332.97;10377225;28;20030;-73
2023/04/11 12:31:24;;;;;;;5.53;2.47;;;;;;;18.10;45.78;101336.66;10377487;28;20084;-73
2023/04/11 12:36:25;;;;;;;5.68;2.05;;;;;;;18.54;50.92;101342.63;10376996;28;20030;-73
2023/04/11 12:41:25;;;;;;;9.50;3.85;;;;;;;17.92;51.48;101345.78;10377005;28;20096;-73
2023/04/11 12:46:25;;;;;;;3.47;3.17;;;;;;;18.51;53.02;101351.34;10391918;28;20058;-73
2023/04/11 12:51:26;;;;;;;3.60;2.22;;;;;;;18.60;49.93;101344.38;10391757;28;20112;-73
2023/04/11 12:56:26;;;;;;;4.15;3.05;;;;;;;18.66;50.29;101346.16;10391331;28;20061;-73
2023/04/11 13:01:27;;;;;;;10.00;2.53;;;;;;;18.85;47.64;101338.66;10391162;28;20076;-73
2023/04/11 13:06:28;;;;;;;8.50;3.42;;;;;;;18.18;44.31;101339.03;10391146;28;20086;-73
2023/04/11 13:11:28;;;;;;;4.15;2.92;;;;;;;18.11;47.77;101330.09;10391311;28;20029;-73
2023/04/11 13:16:29;;;;;;;6.22;2.65;;;;;;;18.32;49.49;101335.00;10373573;28;20433;-73
2023/04/11 13:21:31;;;;;;;5.82;1.77;;;;;;;17.69;42.35;101308.19;10374058;28;20120;-73
2023/04/11 13:26:33;;;;;;;3.90;1.58;;;;;;;17.75;51.33;101314.66;10375104;28;20124;-73
2023/04/11 13:31:33;;;;;;;9.52;2.92;;;;;;;18.24;47.27;101310.66;10373604;28;20476;-73
2023/04/11 13:36:34;;;;;;;15.80;2.72;;;;;;;18.28;45.23;101311.88;10389507;28;20042;-73
2023/04/11 13:41:35;;;;;;;6.82;2.08;;;;;;;18.08;49.99;101305.91;10375250;28;20125;-73
2023/04/11 13:46:35;;;;;;;4.68;2.70;;;;;;;18.25;44.93;101306.88;10373805;28;20057;-73
2023/04/11 13:51:35;;;;;;;5.32;2.03;;;;;;;17.78;52.29;101289.56;10373668;28;20033;-73
2023/04/11 13:56:36;;;;;;;8.90;2.42;;;;;;;17.86;49.67;101287.28;10389927;28;20061;-73
2023/04/11 14:01:36;;;;;;;2.92;1.75;;;;;;;18.07;52.70;101265.88;10373515;28;20121;-73
2023/04/11 14:06:38;;;;;;;3.60;2.25;;;;;;;17.42;42.72;101274.91;10373424;28;20141;-73
2023/04/11 14:11:39;;;;;;;3.00;1.77;;;;;;;17.32;44.34;101259.03;10374236;28;20074;-73
2023/04/11 14:16:40;;;;;;;4.03;1.38;;;;;;;17.42;47.14;101258.47;10373900;28;20030;-73
2023/04/11 14:21:40;;;;;;;1.77;1.40;;;;;;;17.50;48.41;101258.16;10373676;28;20442;-73
2023/04/11 14:26:41;;;;;;;9.20;1.73;;;;;;;17.30;43.09;101249.41;10372218;28;20030;-73
2023/04/11 14:31:41;;;;;;;2.45;1.83;;;;;;;17.16;43.65;101259.72;10375053;28;20041;-73
2023/04/11 14:36:41;;;;;;;2.30;1.50;;;;;;;17.02;46.15;101239.91;10371649;28;20104;-73
2023/04/11 14:41:42;;;;;;;2.63;1.70;;;;;;;16.87;43.85;101236.75;10373688;28;20057;-73
2023/04/11 14:46:42;;;;;;;9.82;1.88;;;;;;;16.84;47.52;101239.94;10380645;28;20450;-73
2023/04/11 14:51:43;;;;;;;2.13;1.92;;;;;;;16.67;49.36;101231.53;10381018;28;20268;-73
2023/04/11 14:56:43;;;;;;;15.38;1.60;;;;;;;15.58;45.54;101218.34;10378914;28;20056;-73
2023/04/11 15:01:44;;;;;;;3.65;1.50;;;;;;;15.03;49.10;101207.22;10363200;28;20472;-73
2023/04/11 15:06:45;;;;;;;5.07;1.27;;;;;;;14.46;48.06;101206.22;10379480;28;20061;-73
2023/04/11 15:11:46;;;;;;;9.75;2.15;;;;;;;14.10;48.30;101193.97;10380477;28;20029;-73
2023/04/11 15:16:46;;;;;;;2.45;1.35;;;;;;;13.70;45.82;101199.47;10379760;28;20022;-73
2023/04/11 15:21:47;;;;;;;5.57;1.85;;;;;;;13.45;48.77;101203.88;10395052;28;20034;-73
2023/04/11 15:26:47;;;;;;;5.13;2.05;;;;;;;13.30;48.40;101197.81;10378439;28;20030;-73
2023/04/11 15:31:48;;;;;;;2.92;2.38;;;;;;;13.24;49.92;101208.47;10379829;28;20088;-73
2023/04/11 15:36:48;;;;;;;3.88;1.67;;;;;;;13.14;50.68;101196.28;10378787;28;20061;-73
2023/04/11 15:41:49;;;;;;;1.20;1.15;;;;;;;12.93;49.71;101194.59;10379028;28;20075;-73
2023/04/11 15:46:50;;;;;;;7.95;2.83;;;;;;;12.91;50.19;101185.78;10378484;28;20041;-73
2023/04/11 15:51:50;;;;;;;2.05;1.40;;;;;;;12.77;52.42;101165.91;10378519;28;20132;-73
2023/04/11 15:56:50;;;;;;;6.30;2.17;;;;;;;12.84;52.36;101155.06;10377118;28;20026;-73
2023/04/11 16:01:51;;;;;;;3.67;2.10;;;;;;;12.71;52.26;101162.13;10377292;28;20105;-73
2023/04/11 16:06:51;;;;;;;1.70;1.38;;;;;;;12.69;52.35;101155.22;10376811;28;20100;-73
2023/04/11 16:11:52;;;;;;;6.25;3.05;;;;;;;12.61;53.32;101156.25;10378662;28;20446;-73
2023/04/11 16:16:52;;;;;;;4.25;2.20;;;;;;;12.55;52.81;101143.50;10360191;28;20042;-73
2023/04/11 16:21:53;;;;;;;12.30;2.65;;;;;;;12.54;54.76;101141.81;10360111;28;20046;-73
2023/04/11 16:26:53;;;;;;;2.30;1.70;;;;;;;12.34;55.28;101126.28;10378426;28;20117;-73
2023/04/11 16:31:54;;;;;;;14.50;1.95;;;;;;;12.43;57.69;101123.38;10376211;28;20058;-73
2023/04/11 16:36:57;;;;;;;11.00;2.83;;;;;;;12.43;58.34;101112.53;10375983;28;20045;-73
2023/04/11 16:41:58;;;;;;;4.82;2.92;;;;;;;12.55;60.32;101117.16;10375248;28;20143;-73
2023/04/11 16:46:58;;;;;;;7.55;2.17;;;;;;;12.54;62.11;101092.94;10393224;28;20128;-73
2023/04/11 16:51:59;;;;;;;16.48;2.38;;;;;;;12.57;64.13;101087.91;10375365;28;20044;-73
2023/04/11 16:57:00;;;;;;;8.70;3.60;;;;;;;12.62;66.15;101079.13;10376286;28;20140;-72
2023/04/11 17:02:01;;;;;;;7.85;3.28;;;;;;;12.52;68.37;101084.97;10375532;28;20092;-73
2023/04/11 17:07:01;;;;;;;11.07;2.88;;;;;;;12.36;69.82;101069.06;10375815;28;20072;-73
2023/04/11 17:12:02;;;;;;;15.02;2.95;;;;;;;12.21;71.30;101082.78;10375815;28;20033;-73
2023/04/11 17:17:02;;;;;;;9.10;2.65;;;;;;;12.06;73.28;101066.69;10374260;28;20040;-73
2023/04/11 17:22:04;;;;;;;14.13;3.17;;;;;;;12.03;74.10;101058.13;10376142;28;20065;-73
2023/04/11 17:27:05;;;;;;;4.13;1.83;;;;;;;11.90;76.50;101044.47;10374943;28;20030;-73
2023/04/11 17:32:06;;;;;;;5.03;2.40;;;;;;;11.80;76.66;101037.50;10375530;28;20034;-73
2023/04/11 17:37:06;;;;;;;19.58;4.22;;;;;;;11.71;77.24;101025.19;10376283;28;20544;-73
2023/04/11 17:42:07;;;;;;;16.10;3.53;;;;;;;11.41;80.75;101022.72;10390667;28;20584;-73
2023/04/11 17:47:07;;;;;;;5.95;2.65;;;;;;;11.35;81.96;101015.38;10389890;28;20473;-73
2023/04/11 17:52:07;;;;;;;12.55;3.85;;;;;;;11.33;81.42;101005.78;10373402;28;20061;-73
2023/04/11 17:57:08;;;;;;;10.07;2.35;;;;;;;11.29;81.83;101002.63;10372522;28;20516;-73
2023/04/11 18:02:09;;;;;;;4.35;3.00;;;;;;;11.25;81.99;100995.09;10390473;28;20030;-73
2023/04/11 18:07:10;;;;;;;7.38;2.67;;;;;;;11.18;84.37;100992.34;10374157;28;20065;-73
2023/04/11 18:12:10;;;;;;;15.07;2.78;;;;;;;11.13;84.34;101000.22;10373437;28;20029;-73
2023/04/11 18:17:11;;;;;;;8.90;3.38;;;;;;;11.09;84.16;100993.53;10373728;28;20041;-73
2023/04/11 18:22:11;;;;;;;9.80;3.15;;;;;;;11.07;84.53;100987.47;10397983;28;20414;-73
2023/04/11 18:27:11;;;;;;;8.70;4.13;;;;;;;10.98;86.37;100972.44;10380880;28;20038;-73
2023/04/11 18:32:12;;;;;;;9.57;3.17;;;;;;;10.94;87.54;100972.81;10380237;28;20091;-73
2023/04/11 18:37:12;;;;;;;17.65;3.30;;;;;;;10.90;87.56;100971.53;10381257;28;20062;-73
2023/04/11 18:42:13;;;;;;;8.73;2.58;;;;;;;10.85;88.92;100962.34;10381802;28;20057;-73
2023/04/11 18:47:13;;;;;;;10.95;3.45;;;;;;;10.86;87.20;100948.56;10381463;28;20097;-73
2023/04/11 18:52:14;;;;;;;8.00;3.58;;;;;;;10.82;88.58;100941.06;10396473;28;20474;-74
2023/04/11 18:57:14;;;;;;;18.50;5.00;;;;;;;10.80;88.70;100922.28;10381485;28;20117;-73
2023/04/11 19:02:16;;;;;;;6.30;2.63;;;;;;;10.76;88.60;100920.19;10380650;28;20073;-73
2023/04/11 19:07:16;;;;;;;13.27;3.20;;;;;;;10.73;90.41;100910.56;10379499;28;20026;-73
2023/04/11 19:12:17;;;;;;;15.45;3.33;;;;;;;10.76;90.22;100904.75;10362862;28;20034;-73
2023/04/11 19:17:18;;;;;;;11.55;3.25;;;;;;;10.76;90.83;100904.75;10380671;28;20454;-73
2023/04/11 19:22:18;;;;;;;14.10;2.88;;;;;;;10.80;91.21;100900.59;10380325;28;20042;-73
2023/04/11 19:27:20;;;;;;;11.50;2.17;;;;;;;10.83;89.57;100880.41;10378694;28;20029;-73
2023/04/11 19:32:20;;;;;;;5.20;1.75;;;;;;;10.96;87.81;100871.53;10378908;28;20034;-73
2023/04/11 19:37:22;;;;;;;5.10;2.30;;;;;;;11.07;86.36;100874.50;10378929;28;20025;-73
2023/04/11 19:42:23;;;;;;;2.92;1.55;;;;;;;11.01;84.05;100855.47;10378174;28;20053;-73
2023/04/11 19:47:24;;;;;;;2.80;1.98;;;;;;;10.85;85.59;100865.66;10380394;28;20466;-73
2023/04/11 19:52:25;;;;;;;5.10;2.80;;;;;;;10.86;88.18;100861.88;10378701;28;20101;-73
2023/04/11 19:57:26;;;;;;;4.75;2.30;;;;;;;10.79;89.99;100861.03;10378238;28;20096;-73
2023/04/11 20:02:26;;;;;;;5.45;2.92;;;;;;;10.27;98.05;100851.50;10394972;28;20041;-73
2023/04/11 20:07:27;;;;;;;4.75;2.65;;;;;;;9.96;100.00;100846.44;10394010;28;20088;-73
2023/04/11 20:12:27;;;;;;;8.55;3.50;;;;;;;9.72;100.00;100826.03;10393052;28;20127;-73
2023/04/11 20:17:28;;;;;;;10.73;3.65;;;;;;;9.52;100.00;100820.44;10376514;28;20124;-73
2023/04/11 20:22:28;;;;;;;6.82;2.45;;;;;;;9.41;100.00;100805.59;10376702;28;20092;-72
2023/04/11 20:27:28;;;;;;;4.25;1.63;;;;;;;9.25;100.00;100797.69;10377753;28;20077;-72
2023/04/11 20:32:29;;;;;;;9.07;2.80;;;;;;;9.24;100.00;100785.22;10393236;28;20124;-73
2023/04/11 20:37:30;;;;;;;8.95;2.90;;;;;;;9.17;100.00;100774.34;10359511;28;20061;-74
2023/04/11 20:42:31;;;;;;;10.98;2.67;;;;;;;9.27;100.00;100768.63;10374909;28;20057;-74
2023/04/11 20:47:36;;;;;;;4.88;3.00;;;;;;;9.28;100.00;100764.88;10375873;28;20103;-74
2023/04/11 20:52:37;;;;;;;8.80;3.60;;;;;;;9.18;100.00;100748.16;10375073;28;20500;-74
2023/04/11 20:57:37;;;;;;;5.20;2.42;;;;;;;9.25;100.00;100743.66;10391165;28;20026;-74
2023/04/11 21:02:40;;;;;;;4.32;2.63;;;;;;;9.08;100.00;100730.41;10377244;28;20129;-73
2023/04/11 21:07:40;;;;;;;19.67;3.22;;;;;;;9.03;100.00;100735.56;10391527;28;20374;-73
2023/04/11 21:12:41;;;;;;;15.20;2.67;;;;;;;8.81;100.00;100731.16;10374696;28;20056;-73
2023/04/11 21:17:42;;;;;;;8.05;2.50;;;;;;;8.65;100.00;100718.72;10375475;28;20041;-72
2023/04/11 21:22:43;;;;;;;6.70;2.75;;;;;;;8.50;100.00;100704.41;10374287;28;20049;-71
2023/04/11 21:27:44;;;;;;;7.25;3.25;;;;;;;8.44;100.00;100697.06;10374768;28;20386;-71
2023/04/11 21:32:45;;;;;;;9.38;4.18;;;;;;;8.42;100.00;100683.75;10389653;28;20033;-71
2023/04/11 21:37:45;;;;;;;9.68;5.43;;;;;;;8.29;100.00;100673.59;10375048;28;20029;-71
2023/04/11 21:42:46;;;;;;;26.45;7.82;;;;;;;8.16;100.00;100671.56;10373879;28;20054;-71
2023/04/11 21:47:46;;;;;;;9.88;4.07;;;;;;;7.99;100.00;100664.69;10375867;28;20038;-72
2023/04/11 21:52:47;;;;;;;10.32;6.05;;;;;;;7.93;100.00;100646.56;10373617;28;20358;-72
2023/04/11 21:57:47;;;;;;;11.15;4.50;;;;;;;7.98;100.00;100640.63;10375408;28;20116;-72
2023/04/11 22:02:48;;;;;;;16.23;5.72;;;;;;;7.86;100.00;100633.00;10373938;28;20033;-72
2023/04/11 22:07:49;;;;;;;20.83;3.78;;;;;;;7.78;100.00;100616.06;10389532;28;20041;-72
2023/04/11 22:12:52;;;;;;;9.02;4.50;;;;;;;7.78;100.00;100598.03;10390506;28;20033;-71
2023/04/11 22:17:55;;;;;;;13.23;4.38;;;;;;;7.84;100.00;100572.19;10374126;28;20121;-71
2023/04/11 22:22:56;;;;;;;8.43;3.47;;;;;;;7.88;100.00;100558.16;10356937;28;20033;-72
2023/04/11 22:27:57;;;;;;;11.40;4.25;;;;;;;7.86;100.00;100559.38;10373320;28;20029;-71
2023/04/11 22:33:00;;;;;;;13.23;4.13;;;;;;;7.89;100.00;100553.59;10389402;28;20361;-72
2023/04/11 22:38:02;;;;;;;7.80;4.70;;;;;;;7.84;100.00;100539.84;10356417;28;20125;-73
2023/04/11 22:43:04;;;;;;;2.90;2.47;;;;;;;7.77;100.00;100528.16;10373033;28;20401;-72
2023/04/11 22:48:06;;;;;;;7.13;2.67;;;;;;;7.76;100.00;100504.94;10372921;28;20137;-73
2023/04/11 22:53:08;;;;;;;5.90;2.10;;;;;;;7.80;100.00;100504.34;10373548;28;20346;-72